Time;durP1;ratioP1;P1;durP2;ratioP2;P2;SDS_P1;SDS_P2;PMS_P1;PMS_P2;Temp;Humidity;BMP_temperature;BMP_pressure;BME280_temperature;BME280_humidity;BME280_pressure;Samples;Min_cycle;Max_cycle;Signal;HPM_P1;HPM_P2
2022/11/15 00:03:21;;;;;;;25.60;14.40;;;;;;;6.64;100.00;100540.00;10538850;28;20094;-68
2022/11/15 00:08:24;;;;;;;28.63;14.95;;;;;;;6.79;100.00;100543.00;10539354;28;20044;-69
2022/11/15 00:13:26;;;;;;;28.83;15.00;;;;;;;6.90;100.00;100534.88;10539326;28;20556;-67
2022/11/15 00:18:29;;;;;;;24.23;15.05;;;;;;;7.00;100.00;100538.88;10536135;28;20466;-70
2022/11/15 00:23:34;;;;;;;25.73;15.00;;;;;;;7.15;100.00;100534.94;10538340;28;20101;-69
2022/11/15 00:28:36;;;;;;;27.45;16.08;;;;;;;7.32;100.00;100538.69;10538295;28;20048;-68
2022/11/15 00:33:39;;;;;;;23.48;14.45;;;;;;;7.38;100.00;100538.50;10538287;28;20094;-69
2022/11/15 00:38:42;;;;;;;23.67;14.18;;;;;;;7.50;100.00;100539.00;10538351;28;20093;-68
2022/11/15 00:43:45;;;;;;;24.10;14.48;;;;;;;7.55;100.00;100532.75;10538273;28;20418;-68
2022/11/15 00:48:47;;;;;;;24.83;14.82;;;;;;;7.62;100.00;100522.97;10535738;28;20059;-68
2022/11/15 00:53:50;;;;;;;21.75;13.95;;;;;;;7.67;100.00;100518.47;10538120;28;20052;-68
2022/11/15 00:58:53;;;;;;;23.70;14.45;;;;;;;7.77;100.00;100513.78;10545835;28;20457;-69
2022/11/15 01:03:56;;;;;;;23.45;14.63;;;;;;;7.76;100.00;100509.50;10545796;28;20094;-69
2022/11/15 01:08:59;;;;;;;19.48;13.73;;;;;;;7.89;100.00;100515.09;10546303;28;20063;-69
2022/11/15 01:14:02;;;;;;;20.77;13.55;;;;;;;7.92;100.00;100511.53;10546128;28;20085;-70
2022/11/15 01:19:04;;;;;;;20.60;12.13;;;;;;;8.01;100.00;100507.78;10543159;28;20102;-68
2022/11/15 01:24:12;;;;;;;;;;;;;;;8.11;100.00;100503.94;10545462;28;20101;-69
2022/11/15 01:29:14;;;;;;;19.77;12.57;;;;;;;8.20;100.00;100495.78;10545101;28;19927;-68
2022/11/15 01:34:17;;;;;;;17.20;12.07;;;;;;;8.31;100.00;100494.53;10544767;28;20059;-69
2022/11/15 01:39:20;;;;;;;16.08;11.38;;;;;;;8.37;100.00;100483.88;10545194;28;20125;-71
2022/11/15 01:44:46;;;;;;;20.10;12.48;;;;;;;8.45;100.00;100487.00;10544655;28;20052;-71
2022/11/15 01:49:58;;;;;;;18.15;12.27;;;;;;;8.55;100.00;100486.69;10541865;28;20102;-68
2022/11/15 01:55:10;;;;;;;18.23;12.00;;;;;;;8.69;100.00;100483.56;10544251;28;20070;-69
2022/11/15 02:00:14;;;;;;;19.85;11.93;;;;;;;8.82;100.00;100483.88;10544003;28;20105;-71
2022/11/15 02:05:16;;;;;;;19.75;13.30;;;;;;;8.91;100.00;100483.50;10543620;28;20066;-69
2022/11/15 02:10:23;;;;;;;19.40;12.75;;;;;;;8.94;100.00;100470.38;10543219;28;20090;-70
2022/11/15 02:15:38;;;;;;;18.27;12.70;;;;;;;9.07;100.00;100473.28;10541084;28;20104;-72
2022/11/15 02:20:59;;;;;;;20.35;13.02;;;;;;;9.17;100.00;100473.75;10542190;28;20051;-71
2022/11/15 02:26:34;;;;;;;16.95;12.63;;;;;;;9.26;100.00;100467.31;10542146;28;20070;-70
2022/11/15 02:31:49;;;;;;;17.88;12.82;;;;;;;9.33;100.00;100460.06;10542692;28;20113;-69
2022/11/15 02:37:04;;;;;;;19.50;12.63;;;;;;;9.39;100.00;100460.69;10542743;28;20071;-70
2022/11/15 02:47:40;;;;;;;18.70;12.65;;;;;;;9.49;100.00;100458.50;10539673;28;20086;-70
2022/11/15 02:52:45;;;;;;;18.73;12.98;;;;;;;9.56;100.00;100447.81;10539999;28;20062;-69
2022/11/15 02:58:00;;;;;;;20.02;12.57;;;;;;;9.58;100.00;100439.00;10539514;28;20054;-69
2022/11/15 03:03:28;;;;;;;20.10;13.93;;;;;;;9.60;100.00;100429.38;10539345;28;20044;-69
2022/11/15 03:08:38;;;;;;;20.00;13.48;;;;;;;9.60;100.00;100431.13;10538942;28;20504;-68
2022/11/15 03:13:49;;;;;;;17.13;13.18;;;;;;;9.60;100.00;100431.13;10538538;28;20103;-70
2022/11/15 03:18:59;;;;;;;20.48;13.90;;;;;;;9.65;100.00;100424.78;10536212;28;20058;-69
2022/11/15 03:24:06;;;;;;;17.95;12.40;;;;;;;9.69;100.00;100435.06;10538456;28;20089;-69
2022/11/15 03:29:14;;;;;;;20.83;13.88;;;;;;;9.73;100.00;100432.28;10538632;28;20055;-69
2022/11/15 03:34:30;;;;;;;21.55;14.23;;;;;;;9.78;100.00;100426.84;10537786;28;20106;-69
2022/11/15 03:39:32;;;;;;;24.88;15.23;;;;;;;9.81;100.00;100425.88;10537817;28;20044;-69
2022/11/15 03:44:46;;;;;;;24.42;15.07;;;;;;;9.81;100.00;100433.69;10538050;28;20109;-69
2022/11/15 03:49:56;;;;;;;22.85;15.75;;;;;;;9.82;100.00;100437.97;10534688;28;20457;-69
2022/11/15 03:55:01;;;;;;;24.65;17.00;;;;;;;9.83;100.00;100437.06;10537145;28;20097;-69
2022/11/15 04:00:04;;;;;;;24.00;14.73;;;;;;;9.84;100.00;100436.13;10536703;28;20511;-70
2022/11/15 04:05:08;;;;;;;25.30;16.02;;;;;;;9.82;100.00;100427.56;10536883;28;20549;-69
2022/11/15 04:10:11;;;;;;;30.60;16.73;;;;;;;9.80;100.00;100430.22;10536715;28;20111;-69
2022/11/15 04:15:17;;;;;;;30.17;16.63;;;;;;;9.78;100.00;100422.47;10534823;28;20058;-68
2022/11/15 04:25:43;;;;;;;27.90;16.52;;;;;;;9.77;100.00;100428.63;10536540;28;20123;-69
2022/11/15 04:30:45;;;;;;;30.55;15.70;;;;;;;9.79;100.00;100423.34;10535496;28;20466;-73
2022/11/15 04:41:05;;;;;;;25.27;17.05;;;;;;;9.78;100.00;100432.91;10535583;28;20143;-69
2022/11/15 04:46:08;;;;;;;;;;;;;;;9.80;100.00;100432.84;10534461;28;20105;-69
2022/11/15 04:51:11;;;;;;;27.15;16.38;;;;;;;9.77;100.00;100431.22;10536132;28;19920;-69
2022/11/15 04:56:14;;;;;;;26.35;16.38;;;;;;;9.76;100.00;100426.06;10536407;28;20044;-69
2022/11/15 05:01:16;;;;;;;25.00;15.85;;;;;;;9.80;100.00;100427.63;10535847;28;20117;-69
2022/11/15 05:06:19;;;;;;;29.38;17.60;;;;;;;9.82;100.00;100422.34;10535409;28;20529;-69
2022/11/15 05:11:21;;;;;;;29.17;18.17;;;;;;;9.85;100.00;100427.41;10536071;28;20116;-69
2022/11/15 05:16:23;;;;;;;30.27;17.67;;;;;;;9.84;100.00;100425.72;10533237;28;20052;-67
2022/11/15 05:21:26;;;;;;;30.55;16.65;;;;;;;9.83;100.00;100424.88;10535198;28;20044;-69
2022/11/15 05:26:29;;;;;;;24.48;15.38;;;;;;;9.90;100.00;100420.22;10534869;28;20416;-72
2022/11/15 05:31:31;;;;;;;26.48;15.65;;;;;;;9.91;100.00;100411.47;10535001;28;20048;-69
2022/11/15 05:36:38;;;;;;;24.50;14.55;;;;;;;9.88;100.00;100406.41;10535130;28;20101;-72
2022/11/15 05:41:45;;;;;;;24.40;14.52;;;;;;;9.89;100.00;100408.13;10535544;28;20495;-69
2022/11/15 05:46:50;;;;;;;23.25;15.40;;;;;;;9.86;100.00;100408.25;10539935;28;20083;-69
2022/11/15 05:51:54;;;;;;;23.27;14.18;;;;;;;9.85;100.00;100417.00;10542361;28;20055;-70
2022/11/15 05:56:56;;;;;;;21.60;15.55;;;;;;;9.89;100.00;100421.16;10542212;28;20101;-69
2022/11/15 06:01:58;;;;;;;21.55;13.32;;;;;;;9.90;100.00;100423.69;10542451;28;20046;-69
2022/11/15 06:07:01;;;;;;;22.20;14.82;;;;;;;9.94;100.00;100434.81;10541479;28;20051;-69
2022/11/15 06:12:03;;;;;;;23.30;15.18;;;;;;;9.97;100.00;100432.06;10541641;28;20039;-69
2022/11/15 06:17:04;;;;;;;24.05;14.13;;;;;;;10.01;100.00;100431.00;10538977;28;20526;-69
2022/11/15 06:22:09;;;;;;;24.20;15.55;;;;;;;10.02;100.00;100430.06;10541331;28;20503;-69
2022/11/15 06:27:12;;;;;;;20.55;15.52;;;;;;;10.01;100.00;100433.59;10540368;28;20048;-69
2022/11/15 06:32:13;;;;;;;23.95;15.68;;;;;;;9.97;100.00;100431.22;10540642;28;20105;-76
2022/11/15 06:37:16;;;;;;;19.80;13.00;;;;;;;9.91;100.00;100438.41;10540651;28;20458;-69
2022/11/15 06:42:18;;;;;;;21.05;13.20;;;;;;;9.83;100.00;100444.88;10540282;28;20059;-69
2022/11/15 06:47:20;;;;;;;18.60;12.02;;;;;;;9.76;100.00;100444.31;10537355;28;20052;-70
2022/11/15 06:52:23;;;;;;;19.85;12.02;;;;;;;9.72;100.00;100453.19;10539094;28;20561;-69
2022/11/15 06:57:25;;;;;;;20.73;12.40;;;;;;;9.68;100.00;100460.28;10539467;28;20462;-69
2022/11/15 07:02:27;;;;;;;20.45;11.77;;;;;;;9.69;100.00;100459.38;10538843;28;20109;-69
2022/11/15 07:07:30;;;;;;;15.93;11.07;;;;;;;9.68;100.00;100457.66;10539090;28;20109;-70
2022/11/15 07:12:32;;;;;;;18.83;11.85;;;;;;;9.69;100.00;100469.81;10538607;28;20059;-69
2022/11/15 07:17:35;;;;;;;22.90;12.18;;;;;;;9.66;100.00;100475.97;10536190;28;20086;-68
2022/11/15 07:22:38;;;;;;;20.75;11.73;;;;;;;9.68;100.00;100475.91;10538864;28;20048;-69
2022/11/15 07:27:40;;;;;;;22.02;11.20;;;;;;;9.71;100.00;100477.56;10537633;28;20048;-68
2022/11/15 07:32:41;;;;;;;20.35;12.02;;;;;;;9.69;100.00;100485.44;10536924;28;20084;-74
2022/11/15 07:37:44;;;;;;;20.85;12.82;;;;;;;9.66;100.00;100480.38;10538039;28;20050;-70
2022/11/15 07:42:56;;;;;;;19.88;12.05;;;;;;;9.63;100.00;100473.53;10538549;28;20048;-71
2022/11/15 07:47:57;;;;;;;21.02;12.25;;;;;;;9.64;100.00;100458.72;10535630;28;20044;-69
2022/11/15 07:53:01;;;;;;;21.27;13.38;;;;;;;9.62;100.00;100465.78;10537245;28;20184;-70
2022/11/15 07:58:04;;;;;;;22.17;12.48;;;;;;;9.62;100.00;100469.22;10537903;28;20048;-70
2022/11/15 08:03:09;;;;;;;23.42;12.05;;;;;;;9.58;100.00;100466.84;10537411;28;20052;-71
2022/11/15 08:08:12;;;;;;;16.25;10.43;;;;;;;9.64;100.00;100476.97;10536330;28;20442;-70
2022/11/15 08:13:15;;;;;;;16.13;10.70;;;;;;;9.66;100.00;100488.19;10537068;28;20097;-73
2022/11/15 08:18:18;;;;;;;18.98;10.82;;;;;;;9.65;100.00;100483.88;10534210;28;20103;-73
2022/11/15 08:23:22;;;;;;;;;;;;;;;9.58;100.00;100488.50;10536718;28;20477;-70
2022/11/15 08:28:23;;;;;;;13.85;8.40;;;;;;;9.59;100.00;100473.72;10536501;28;19920;-70
2022/11/15 08:33:25;;;;;;;15.35;9.10;;;;;;;9.77;100.00;100478.13;10536021;28;20060;-72
2022/11/15 08:38:30;;;;;;;10.63;8.38;;;;;;;9.81;100.00;100459.75;10536437;28;20136;-70
2022/11/15 08:43:31;;;;;;;14.55;8.40;;;;;;;10.11;100.00;100456.63;10535976;28;20097;-70
2022/11/15 08:48:33;;;;;;;8.15;5.63;;;;;;;9.98;100.00;100454.59;10533494;28;20093;-71
2022/11/15 08:53:36;;;;;;;9.70;6.82;;;;;;;10.11;100.00;100452.28;10535872;28;20074;-68
2022/11/15 08:58:38;;;;;;;11.13;6.80;;;;;;;10.25;100.00;100449.00;10536074;28;20120;-67
2022/11/15 09:03:41;;;;;;;;;;;;;;;10.95;100.00;100444.84;10536104;28;20503;-69
2022/11/15 09:08:44;;;;;;;7.22;5.18;;;;;;;11.19;100.00;100436.66;10536057;28;19920;-69
2022/11/15 09:13:45;;;;;;;5.40;4.45;;;;;;;10.46;100.00;100428.06;10535291;28;20082;-67
2022/11/15 09:18:47;;;;;;;5.93;4.40;;;;;;;11.08;100.00;100411.94;10538625;28;20465;-66
2022/11/15 09:23:52;;;;;;;4.65;4.03;;;;;;;11.08;100.00;100406.72;10543696;28;20048;-66
2022/11/15 09:28:54;;;;;;;4.70;4.00;;;;;;;11.36;100.00;100411.44;10543762;28;20135;-66
2022/11/15 09:33:57;;;;;;;6.28;3.40;;;;;;;11.39;100.00;100406.88;10542760;28;20470;-67
2022/11/15 09:39:00;;;;;;;3.78;2.90;;;;;;;11.65;100.00;100396.81;10542510;28;20044;-66
2022/11/15 09:44:33;;;;;;;5.00;2.85;;;;;;;10.93;100.00;100397.91;10542331;28;20561;-67
2022/11/15 09:49:35;;;;;;;2.28;2.05;;;;;;;10.98;100.00;100397.66;10537393;28;20063;-77
2022/11/15 09:54:42;;;;;;;2.75;1.90;;;;;;;11.16;100.00;100395.03;10542743;28;20044;-76
2022/11/15 10:00:03;;;;;;;2.33;1.80;;;;;;;11.05;100.00;100393.81;10542184;28;20112;-76
2022/11/15 10:05:12;;;;;;;3.10;1.70;;;;;;;11.68;100.00;100393.19;10541893;28;20123;-74
2022/11/15 10:10:29;;;;;;;3.65;1.80;;;;;;;11.59;99.61;100384.06;10541564;28;20048;-77
2022/11/15 10:15:32;;;;;;;3.50;1.35;;;;;;;11.57;96.95;100394.59;10540481;28;20054;-75
2022/11/15 10:20:47;;;;;;;4.90;1.40;;;;;;;11.90;94.97;100389.41;10543370;28;20050;-76
2022/11/15 10:25:53;;;;;;;4.57;1.65;;;;;;;11.15;92.27;100388.13;10542988;28;20048;-70
2022/11/15 10:30:58;;;;;;;3.42;1.40;;;;;;;10.68;96.43;100382.66;10543021;28;20503;-73
2022/11/15 10:36:19;;;;;;;4.30;1.40;;;;;;;10.58;96.06;100378.81;10543771;28;20048;-78
2022/11/15 10:41:31;;;;;;;2.55;1.50;;;;;;;10.65;96.89;100364.53;10542806;28;20498;-75
2022/11/15 10:46:35;;;;;;;5.93;1.50;;;;;;;10.81;96.44;100356.75;10539601;28;20079;-75
2022/11/15 10:51:45;;;;;;;4.85;1.67;;;;;;;11.32;92.94;100342.81;10525358;28;20048;-75
2022/11/15 10:56:52;;;;;;;1.98;1.50;;;;;;;12.28;92.46;100346.34;10542451;28;20059;-74
2022/11/15 11:01:54;;;;;;;6.45;1.77;;;;;;;12.30;89.60;100324.38;10540804;28;20066;-76
2022/11/15 11:07:00;;;;;;;5.30;1.73;;;;;;;11.71;89.65;100333.72;10542316;28;20052;-76
2022/11/15 11:12:07;;;;;;;4.20;1.90;;;;;;;12.20;88.85;100323.22;10540673;28;20047;-76
2022/11/15 11:17:22;;;;;;;3.63;1.80;;;;;;;12.28;88.00;100323.63;10540150;28;20140;-78
2022/11/15 11:22:35;;;;;;;7.13;1.85;;;;;;;12.78;89.47;100294.56;10541222;28;20054;-80
2022/11/15 11:27:53;;;;;;;4.15;1.65;;;;;;;11.53;90.12;100288.53;10541030;28;20105;-76
2022/11/15 11:33:16;;;;;;;4.63;1.63;;;;;;;12.16;88.58;100266.78;10540774;28;20090;-77
2022/11/15 11:38:40;;;;;;;3.65;1.73;;;;;;;12.64;84.81;100265.72;10541002;28;20460;-74
2022/11/15 11:44:16;;;;;;;5.78;1.90;;;;;;;13.10;84.31;100264.69;10539644;28;20043;-75
2022/11/15 11:49:27;;;;;;;3.70;1.90;;;;;;;12.67;82.16;100245.47;10538566;28;20058;-74
2022/11/15 11:54:40;;;;;;;4.93;1.33;;;;;;;13.46;81.95;100234.50;10499408;28;20048;-75
2022/11/15 11:59:52;;;;;;;3.97;1.50;;;;;;;13.68;81.38;100227.03;10497940;28;20044;-74
2022/11/15 12:05:12;;;;;;;3.90;1.73;;;;;;;12.72;81.45;100219.84;10525346;28;20051;-76
2022/11/15 12:10:24;;;;;;;3.35;1.23;;;;;;;12.49;81.18;100210.78;10539328;28;20056;-79
2022/11/15 12:15:33;;;;;;;;;;;;;;;12.49;81.97;100202.94;10537785;28;20059;-76
2022/11/15 12:20:41;;;;;;;3.80;1.50;;;;;;;12.64;82.71;100195.06;10539261;28;19920;-77
2022/11/15 12:25:51;;;;;;;4.60;1.70;;;;;;;12.94;80.80;100186.25;10539036;28;20044;-78
2022/11/15 12:31:04;;;;;;;4.10;1.35;;;;;;;12.52;81.71;100173.13;10538951;28;20078;-77
2022/11/15 12:36:13;;;;;;;2.58;1.42;;;;;;;12.44;79.64;100168.34;10526355;28;20105;-74
2022/11/15 12:41:17;;;;;;;7.13;1.42;;;;;;;12.32;78.31;100149.84;10497243;28;20048;-77
2022/11/15 12:47:23;;;;;;;3.97;1.30;;;;;;;12.82;78.22;100153.81;10525705;28;20054;-74
2022/11/15 12:52:24;;;;;;;4.10;1.40;;;;;;;12.31;80.69;100150.78;10523685;28;20055;-75
2022/11/15 12:57:44;;;;;;;2.45;1.50;;;;;;;12.59;81.96;100136.00;10540577;28;20062;-76
2022/11/15 13:02:48;;;;;;;3.80;1.50;;;;;;;12.05;80.23;100119.16;10544676;28;20044;-74
2022/11/15 13:07:59;;;;;;;4.28;1.10;;;;;;;11.89;80.36;100110.53;10544441;28;20521;-73
2022/11/15 13:13:03;;;;;;;2.50;1.37;;;;;;;11.78;83.41;100098.97;10545317;28;20471;-81
2022/11/15 13:18:40;;;;;;;5.75;1.70;;;;;;;11.78;82.44;100083.28;10543087;28;20062;-72
2022/11/15 13:23:41;;;;;;;6.05;1.50;;;;;;;11.96;83.66;100083.97;10543633;28;20098;-76
2022/11/15 13:28:48;;;;;;;4.22;1.70;;;;;;;12.02;82.93;100081.91;10545598;28;20048;-75
2022/11/15 13:33:53;;;;;;;6.28;1.77;;;;;;;11.87;83.72;100070.59;10545548;28;20080;-79
2022/11/15 13:39:00;;;;;;;6.85;1.92;;;;;;;11.88;83.93;100062.66;10545807;28;20365;-76
2022/11/15 13:44:04;;;;;;;3.28;1.27;;;;;;;11.74;84.35;100054.81;10546204;28;20419;-79
2022/11/15 13:49:11;;;;;;;2.60;1.50;;;;;;;11.72;85.36;100049.66;10543762;28;20255;-79
2022/11/15 13:54:27;;;;;;;4.18;1.35;;;;;;;11.66;85.45;100034.34;10523260;28;20051;-81
2022/11/15 13:59:34;;;;;;;2.17;1.48;;;;;;;11.51;86.32;100023.91;10503961;28;20049;-79
2022/11/15 14:04:40;;;;;;;7.70;1.70;;;;;;;11.48;87.45;100023.22;10501666;28;20095;-77
2022/11/15 14:09:45;;;;;;;5.35;1.52;;;;;;;11.42;88.16;100008.75;10503391;28;20045;-81
2022/11/15 14:14:47;;;;;;;4.60;1.30;;;;;;;11.41;88.34;100007.94;10503059;28;20048;-83
2022/11/15 14:19:52;;;;;;;1.75;0.75;;;;;;;11.45;86.74;99983.31;10501409;28;20056;-79
2022/11/15 14:25:17;;;;;;;2.40;1.23;;;;;;;11.54;87.11;99975.84;10502119;28;20557;-77
2022/11/15 14:30:19;;;;;;;4.47;1.40;;;;;;;11.50;87.83;99975.16;10509377;28;20048;-79
2022/11/15 14:35:24;;;;;;;2.97;1.40;;;;;;;11.54;86.67;99963.63;10542708;28;20048;-75
2022/11/15 14:40:27;;;;;;;1.20;0.90;;;;;;;11.54;88.26;99955.78;10542365;28;20044;-73
2022/11/15 14:45:29;;;;;;;4.78;1.45;;;;;;;11.54;88.89;99950.56;10516200;28;20044;-76
2022/11/15 14:50:35;;;;;;;3.83;1.75;;;;;;;11.43;90.73;99945.13;10500024;28;20158;-75
2022/11/15 14:55:37;;;;;;;6.93;1.90;;;;;;;11.50;90.18;99941.19;10506582;28;20060;-76
2022/11/15 15:00:41;;;;;;;3.63;1.60;;;;;;;11.42;90.97;99926.00;10500200;28;20492;-78
2022/11/15 15:05:45;;;;;;;4.55;1.63;;;;;;;11.49;90.50;99921.22;10500189;28;20048;-76
2022/11/15 15:10:47;;;;;;;6.80;4.32;;;;;;;11.38;91.98;99906.22;10500066;28;20057;-77
2022/11/15 15:15:52;;;;;;;6.68;1.75;;;;;;;11.39;91.50;99900.06;10497699;28;20044;-78
2022/11/15 15:20:59;;;;;;;7.72;1.65;;;;;;;11.35;92.10;99892.53;10499810;28;20144;-76
2022/11/15 15:26:02;;;;;;;4.70;2.10;;;;;;;11.35;92.48;99889.91;10499179;28;20098;-77
2022/11/15 15:31:04;;;;;;;5.78;1.92;;;;;;;11.31;93.83;99882.25;10498578;28;20056;-76
2022/11/15 15:36:12;;;;;;;;;;;;;;;11.28;94.04;99886.81;10499034;28;20479;-76
2022/11/15 15:41:16;;;;;;;2.08;1.80;;;;;;;11.25;94.46;99877.41;10498799;28;19920;-76
2022/11/15 15:46:20;;;;;;;5.90;1.88;;;;;;;11.28;94.48;99872.00;10527418;28;20587;-75
2022/11/15 15:51:24;;;;;;;4.10;1.85;;;;;;;11.38;93.99;99871.41;10539881;28;20055;-75
2022/11/15 15:56:27;;;;;;;4.25;2.40;;;;;;;11.45;94.31;99867.50;10523942;28;20443;-73
2022/11/15 16:01:29;;;;;;;3.35;2.10;;;;;;;11.42;94.41;99863.31;10539719;28;20052;-74
2022/11/15 16:06:42;;;;;;;7.13;2.65;;;;;;;11.31;95.70;99863.97;10539770;28;20429;-75
2022/11/15 16:11:46;;;;;;;4.07;2.28;;;;;;;11.23;97.04;99863.59;10541305;28;20055;-75
2022/11/15 16:16:49;;;;;;;4.18;2.30;;;;;;;11.19;98.83;99867.34;10537016;28;20056;-76
2022/11/15 16:21:52;;;;;;;4.05;2.88;;;;;;;11.04;100.00;99863.88;10540170;28;20058;-74
2022/11/15 16:26:55;;;;;;;9.02;3.70;;;;;;;10.91;100.00;99866.38;10538048;28;20055;-76
2022/11/15 16:31:57;;;;;;;4.82;2.75;;;;;;;10.67;100.00;99861.66;10539784;28;20117;-74
2022/11/15 16:37:00;;;;;;;3.67;2.97;;;;;;;10.54;100.00;99867.59;10538969;28;20051;-76
2022/11/15 16:42:05;;;;;;;6.95;2.97;;;;;;;10.30;100.00;99860.22;10538291;28;20048;-78
2022/11/15 16:47:18;;;;;;;4.00;3.10;;;;;;;10.11;100.00;99862.19;10536165;28;20048;-77
2022/11/15 16:52:22;;;;;;;4.72;3.20;;;;;;;10.04;100.00;99853.88;10537422;28;20040;-79
2022/11/15 16:57:24;;;;;;;3.83;3.25;;;;;;;9.90;100.00;99847.69;10536754;28;20052;-68
2022/11/15 17:02:27;;;;;;;3.58;2.70;;;;;;;9.89;100.00;99860.81;10535957;28;20369;-67
2022/11/15 17:07:30;;;;;;;4.78;3.30;;;;;;;9.90;100.00;99858.13;10536529;28;20521;-69
2022/11/15 17:12:33;;;;;;;4.95;3.30;;;;;;;9.88;100.00;99859.97;10536862;28;20522;-68
2022/11/15 17:17:35;;;;;;;6.05;3.72;;;;;;;9.78;100.00;99849.19;10533724;28;20063;-67
2022/11/15 17:22:38;;;;;;;5.43;3.70;;;;;;;9.61;100.00;99846.69;10536192;28;20113;-68
2022/11/15 17:27:40;;;;;;;5.15;3.55;;;;;;;9.68;100.00;99837.59;10535858;28;20090;-67
2022/11/15 17:32:42;;;;;;;6.45;3.45;;;;;;;9.57;100.00;99834.72;10535853;28;20164;-68
2022/11/15 17:37:47;;;;;;;3.88;3.38;;;;;;;9.60;100.00;99829.34;10536509;28;20105;-68
2022/11/15 17:42:48;;;;;;;12.40;4.15;;;;;;;9.51;100.00;99826.34;10543523;28;20056;-68
2022/11/15 17:47:50;;;;;;;4.65;3.83;;;;;;;9.54;100.00;99827.94;10541134;28;20059;-69
2022/11/15 17:52:56;;;;;;;5.38;3.50;;;;;;;9.51;100.00;99822.88;10543004;28;20487;-67
2022/11/15 17:58:12;;;;;;;3.65;2.65;;;;;;;9.54;100.00;99822.72;10543582;28;20158;-71
2022/11/15 18:03:15;;;;;;;6.82;3.83;;;;;;;9.50;100.00;99819.44;10540619;28;20525;-68
2022/11/15 18:08:19;;;;;;;8.02;3.65;;;;;;;9.49;100.00;99814.31;10542583;28;20102;-68
2022/11/15 18:13:22;;;;;;;6.93;4.10;;;;;;;9.49;100.00;99807.38;10541601;28;20055;-68
2022/11/15 18:18:24;;;;;;;5.63;4.18;;;;;;;9.47;100.00;99797.94;10539414;28;20108;-68
2022/11/15 18:23:27;;;;;;;5.57;3.55;;;;;;;9.50;100.00;99802.97;10541878;28;20056;-68
2022/11/15 18:28:31;;;;;;;6.22;4.43;;;;;;;9.57;100.00;99793.06;10541530;28;20105;-71
2022/11/15 18:33:34;;;;;;;4.75;4.03;;;;;;;9.63;100.00;99779.69;10541117;28;20059;-69
2022/11/15 18:38:37;;;;;;;7.13;4.43;;;;;;;9.62;100.00;99773.66;10508511;28;20059;-68
2022/11/15 18:43:41;;;;;;;7.28;4.97;;;;;;;9.64;100.00;99773.56;10528073;28;20133;-67
2022/11/15 18:48:45;;;;;;;9.63;5.45;;;;;;;9.61;100.00;99766.75;10537714;28;20093;-67
2022/11/15 18:53:53;;;;;;;5.68;4.22;;;;;;;9.79;100.00;99767.50;10540798;28;20052;-69
2022/11/15 18:58:57;;;;;;;6.43;5.53;;;;;;;9.82;100.00;99770.88;10541029;28;20059;-68
2022/11/15 19:04:05;;;;;;;3.50;3.20;;;;;;;9.90;100.00;99768.66;10540103;28;20453;-67
2022/11/15 19:09:10;;;;;;;5.80;4.75;;;;;;;9.88;100.00;99771.34;10540010;28;20464;-67
2022/11/15 19:14:16;;;;;;;7.20;5.38;;;;;;;9.90;100.00;99764.31;10539199;28;20125;-68
2022/11/15 19:19:20;;;;;;;6.38;5.70;;;;;;;9.92;100.00;99762.44;10537076;28;20558;-68
2022/11/15 19:24:23;;;;;;;6.68;4.10;;;;;;;9.93;100.00;99765.88;10539524;28;20048;-67
2022/11/15 19:29:25;;;;;;;4.97;3.67;;;;;;;9.90;100.00;99751.28;10545028;28;20442;-70
2022/11/15 19:34:27;;;;;;;6.93;5.07;;;;;;;9.85;100.00;99742.03;10541112;28;20089;-73
2022/11/15 19:39:30;;;;;;;6.05;5.40;;;;;;;9.86;100.00;99743.72;10514807;28;20102;-69
2022/11/15 19:44:31;;;;;;;7.07;5.38;;;;;;;9.95;100.00;99731.91;10496991;28;20459;-69
2022/11/15 19:49:33;;;;;;;7.25;5.10;;;;;;;9.97;100.00;99733.50;10493558;28;20114;-70
2022/11/15 19:54:36;;;;;;;8.98;5.82;;;;;;;9.96;100.00;99734.41;10495934;28;20102;-70
2022/11/15 19:59:38;;;;;;;3.63;3.25;;;;;;;10.03;100.00;99727.91;10508120;28;20044;-70
2022/11/15 20:04:40;;;;;;;8.00;6.50;;;;;;;10.02;100.00;99731.47;10537476;28;20542;-69
2022/11/15 20:09:43;;;;;;;6.57;5.15;;;;;;;10.13;100.00;99727.41;10537948;28;20044;-67
2022/11/15 20:14:46;;;;;;;9.32;5.95;;;;;;;10.16;100.00;99730.66;10537700;28;20101;-70
2022/11/15 20:19:48;;;;;;;7.50;6.45;;;;;;;10.15;100.00;99715.94;10535731;28;20060;-68
2022/11/15 20:24:51;;;;;;;6.82;6.15;;;;;;;10.16;100.00;99711.56;10537528;28;20455;-68
2022/11/15 20:29:56;;;;;;;7.57;6.10;;;;;;;10.08;100.00;99714.63;10536550;28;20356;-70
2022/11/15 20:34:58;;;;;;;10.13;7.50;;;;;;;10.03;100.00;99709.69;10537974;28;20047;-70
2022/11/15 20:40:01;;;;;;;8.57;6.80;;;;;;;10.03;100.00;99701.84;10536461;28;20451;-69
2022/11/15 20:45:05;;;;;;;10.60;8.07;;;;;;;9.99;100.00;99697.75;10537226;28;20055;-68
2022/11/15 20:50:10;;;;;;;10.32;8.05;;;;;;;9.95;100.00;99688.44;10534988;28;20052;-69
2022/11/15 20:55:14;;;;;;;9.00;7.90;;;;;;;9.96;100.00;99700.53;10536981;28;20044;-69
2022/11/15 21:00:21;;;;;;;12.05;8.80;;;;;;;9.97;100.00;99690.97;10537879;28;20075;-69
2022/11/15 21:05:22;;;;;;;11.27;9.02;;;;;;;9.94;100.00;99678.94;10537346;28;20054;-69
2022/11/15 21:15:45;;;;;;;11.20;5.97;;;;;;;10.10;100.00;99673.69;10544398;28;20054;-68
2022/11/15 21:20:46;;;;;;;10.32;9.23;;;;;;;10.04;100.00;99672.28;10547926;28;20450;-68
2022/11/15 21:25:51;;;;;;;11.43;8.75;;;;;;;10.05;100.00;99665.28;10545986;28;20051;-69
2022/11/15 21:30:55;;;;;;;14.00;9.88;;;;;;;10.03;100.00;99665.38;10545870;28;20561;-71
2022/11/15 21:35:58;;;;;;;10.80;8.15;;;;;;;10.04;100.00;99659.25;10545978;28;20051;-68
2022/11/15 21:41:03;;;;;;;11.90;9.15;;;;;;;10.11;100.00;99653.66;10546187;28;20056;-74
2022/11/15 21:46:06;;;;;;;11.98;9.55;;;;;;;10.12;100.00;99652.72;10543911;28;20054;-74
2022/11/15 21:51:11;;;;;;;9.73;8.02;;;;;;;10.12;100.00;99634.47;10546035;28;20533;-72
2022/11/15 21:56:14;;;;;;;6.25;5.25;;;;;;;10.15;100.00;99629.91;10546125;28;20063;-73
2022/11/15 22:06:57;;;;;;;11.27;8.73;;;;;;;10.10;100.00;99626.75;10544882;28;20041;-75
2022/11/15 22:12:14;;;;;;;11.13;7.78;;;;;;;10.12;100.00;99613.59;10544658;28;20135;-75
2022/11/15 22:17:56;;;;;;;9.82;7.47;;;;;;;10.16;100.00;99612.50;10542361;28;20071;-74
2022/11/15 22:22:51;;;;;;;8.63;7.32;;;;;;;10.16;100.00;99609.88;10543445;28;20052;-75
2022/11/15 22:27:54;;;;;;;11.68;8.13;;;;;;;10.12;100.00;99600.56;10542941;28;20592;-75
2022/11/15 22:32:56;;;;;;;9.25;8.00;;;;;;;10.13;100.00;99594.44;10543276;28;20052;-76
2022/11/15 22:38:15;;;;;;;9.25;7.15;;;;;;;10.12;100.00;99590.16;10543494;28;20055;-77
2022/11/15 22:43:22;;;;;;;10.32;8.07;;;;;;;10.15;100.00;99574.31;10542252;28;20055;-76
2022/11/15 22:48:26;;;;;;;9.40;7.72;;;;;;;10.16;100.00;99576.84;10540903;28;20591;-78
2022/11/15 22:53:29;;;;;;;10.05;8.45;;;;;;;10.17;100.00;99575.09;10542636;28;20099;-76
2022/11/15 22:58:33;;;;;;;9.85;8.20;;;;;;;10.18;100.00;99579.34;10542969;28;20051;-78
2022/11/15 23:03:34;;;;;;;6.95;6.25;;;;;;;10.20;100.00;99568.84;10542841;28;20080;-76
2022/11/15 23:08:36;;;;;;;10.18;8.43;;;;;;;10.16;100.00;99563.81;10541798;28;20480;-77
2022/11/15 23:13:40;;;;;;;7.68;6.60;;;;;;;10.19;100.00;99554.97;10541852;28;20052;-75
2022/11/15 23:18:42;;;;;;;9.32;7.95;;;;;;;10.20;100.00;99561.88;10540012;28;20494;-78
2022/11/15 23:23:43;;;;;;;11.10;8.32;;;;;;;10.19;100.00;99568.00;10541107;28;20048;-78
2022/11/15 23:28:46;;;;;;;12.50;8.35;;;;;;;10.21;100.00;99567.91;10541417;28;20048;-78
2022/11/15 23:33:58;;;;;;;11.40;8.27;;;;;;;10.23;100.00;99560.84;10541207;28;20102;-77
2022/11/15 23:39:00;;;;;;;10.63;9.00;;;;;;;10.22;100.00;99560.00;10540440;28;20055;-76
2022/11/15 23:44:05;;;;;;;9.48;8.05;;;;;;;10.25;100.00;99549.38;10539988;28;20544;-76
2022/11/15 23:49:07;;;;;;;12.50;8.60;;;;;;;10.22;100.00;99560.00;10538134;28;20074;-75